createdAt,value
2023-03-17T00:01:07.604Z,100809.47
2023-03-17T00:03:38.132Z,100800.38
2023-03-17T00:06:06.546Z,100803.84
2023-03-17T00:08:35.052Z,100801.88
2023-03-17T00:11:02.153Z,100798.94
2023-03-17T00:13:29.472Z,100805.00
2023-03-17T00:16:00.239Z,100806.13
2023-03-17T00:18:27.145Z,100805.03
2023-03-17T00:20:53.684Z,100798.50
2023-03-17T00:23:22.520Z,100807.94
2023-03-17T00:25:49.203Z,100803.31
2023-03-17T00:28:23.823Z,100810.16
2023-03-17T00:30:55.191Z,100809.13
2023-03-17T00:33:29.769Z,100811.00
2023-03-17T00:35:57.617Z,100802.91
2023-03-17T00:38:24.110Z,100803.69
2023-03-17T00:40:51.402Z,100802.81
2023-03-17T00:43:18.211Z,100803.78
2023-03-17T00:45:44.682Z,100801.09
2023-03-17T00:48:21.845Z,100801.91
2023-03-17T00:50:50.092Z,100804.31
2023-03-17T00:53:19.904Z,100801.56
2023-03-17T00:55:47.133Z,100807.25
2023-03-17T00:58:26.334Z,100811.56
2023-03-17T01:00:53.673Z,100803.53
2023-03-17T01:03:20.444Z,100799.13
2023-03-17T01:05:48.432Z,100806.06
2023-03-17T01:08:15.391Z,100812.34
2023-03-17T01:10:41.968Z,100811.44
2023-03-17T01:13:13.253Z,100817.38
2023-03-17T01:15:43.724Z,100819.94
2023-03-17T01:18:11.604Z,100813.78
2023-03-17T01:20:38.785Z,100819.28
2023-03-17T01:23:05.902Z,100820.13
2023-03-17T01:25:32.841Z,100818.34
2023-03-17T01:28:00.128Z,100829.13
2023-03-17T01:30:32.871Z,100832.69
2023-03-17T01:33:00.011Z,100827.22
2023-03-17T01:35:28.453Z,100834.00
2023-03-17T01:37:55.926Z,100829.38
2023-03-17T01:40:25.645Z,100832.97
2023-03-17T01:42:55.173Z,100833.78
2023-03-17T01:46:03.754Z,100838.03
2023-03-17T01:48:34.346Z,100837.41
2023-03-17T01:51:01.663Z,100834.38
2023-03-17T01:53:28.217Z,100833.34
2023-03-17T01:55:57.564Z,100836.78
2023-03-17T01:58:25.802Z,100830.88
2023-03-17T02:00:52.399Z,100838.63
2023-03-17T02:03:19.526Z,100829.94
2023-03-17T02:05:46.557Z,100837.03
2023-03-17T02:08:15.208Z,100837.13
2023-03-17T02:10:42.762Z,100841.81
2023-03-17T02:13:11.009Z,100846.13
2023-03-17T02:15:43.698Z,100846.84
2023-03-17T02:18:11.038Z,100848.47
2023-03-17T02:20:37.460Z,100848.47
2023-03-17T02:23:05.585Z,100850.22
2023-03-17T02:25:34.638Z,100846.75
2023-03-17T02:28:16.575Z,100852.56
2023-03-17T02:30:43.750Z,100840.75
2023-03-17T02:33:11.283Z,100855.31
2023-03-17T02:35:38.644Z,100865.38
2023-03-17T02:38:05.311Z,100865.53
2023-03-17T02:40:32.149Z,100869.34
2023-03-17T02:42:59.456Z,100868.69
2023-03-17T02:45:25.949Z,100864.50
2023-03-17T02:47:52.684Z,100864.53
2023-03-17T02:50:23.247Z,100865.66
2023-03-17T02:52:50.616Z,100864.31
2023-03-17T02:55:18.019Z,100869.44
2023-03-17T02:57:44.765Z,100862.13
2023-03-17T03:00:11.638Z,100878.03
2023-03-17T03:02:38.324Z,100868.19
2023-03-17T03:05:06.523Z,100870.88
2023-03-17T03:07:33.101Z,100869.84
2023-03-17T03:09:59.696Z,100877.94
2023-03-17T03:12:26.155Z,100871.63
2023-03-17T03:14:52.575Z,100876.91
2023-03-17T03:17:19.048Z,100881.34
2023-03-17T03:19:45.592Z,100884.72
2023-03-17T03:22:12.079Z,100885.56
2023-03-17T03:24:38.528Z,100893.59
2023-03-17T03:27:05.089Z,100898.88
2023-03-17T03:29:31.552Z,100896.28
2023-03-17T03:31:58.015Z,100892.88
2023-03-17T03:34:24.500Z,100897.16
2023-03-17T03:36:50.965Z,100899.75
2023-03-17T03:39:17.420Z,100904.38
2023-03-17T03:41:43.913Z,100906.22
2023-03-17T03:44:10.461Z,100903.84
2023-03-17T03:46:37.066Z,100904.00
2023-03-17T03:49:03.561Z,100913.63
2023-03-17T03:51:29.999Z,100917.94
2023-03-17T03:53:56.420Z,100922.28
2023-03-17T03:56:22.961Z,100923.13
2023-03-17T03:58:49.856Z,100918.72
2023-03-17T04:01:16.289Z,100925.59
2023-03-17T04:03:42.784Z,100923.59
2023-03-17T04:06:09.291Z,100923.59
2023-03-17T04:08:35.777Z,100922.69
2023-03-17T04:11:02.242Z,100924.47
2023-03-17T04:13:28.718Z,100930.06
2023-03-17T04:15:55.212Z,100928.84
2023-03-17T04:18:21.891Z,100930.47
2023-03-17T04:20:48.377Z,100928.75
2023-03-17T04:23:14.804Z,100930.47
2023-03-17T04:25:41.240Z,100926.25
2023-03-17T04:28:07.707Z,100930.63
2023-03-17T04:30:34.231Z,100929.38
2023-03-17T04:33:00.775Z,100935.66
2023-03-17T04:35:27.249Z,100932.41
2023-03-17T04:37:53.790Z,100931.41
2023-03-17T04:40:20.455Z,100943.41
2023-03-17T04:42:46.894Z,100946.16
2023-03-17T04:45:14.370Z,100950.97
2023-03-17T04:47:41.334Z,100956.81
2023-03-17T04:50:08.940Z,100961.00
2023-03-17T04:52:35.724Z,100962.50
2023-03-17T04:55:02.412Z,100968.72
2023-03-17T04:57:28.945Z,100964.16
2023-03-17T04:59:55.442Z,100968.72
2023-03-17T05:02:22.016Z,100969.75
2023-03-17T05:04:48.543Z,100969.53
2023-03-17T05:07:15.399Z,100965.88
2023-03-17T05:09:42.951Z,100975.59
2023-03-17T05:12:10.361Z,100988.25
2023-03-17T05:14:37.582Z,100980.78
2023-03-17T05:17:04.173Z,100994.09
2023-03-17T05:19:30.659Z,100987.88
2023-03-17T05:21:57.150Z,101003.81
2023-03-17T05:24:23.949Z,101000.25
2023-03-17T05:26:50.530Z,101000.81
2023-03-17T05:29:17.022Z,101006.00
2023-03-17T05:31:43.535Z,101012.00
2023-03-17T05:34:10.031Z,101017.44
2023-03-17T05:36:36.800Z,101016.41
2023-03-17T05:39:03.571Z,101004.78
2023-03-17T05:41:30.054Z,101009.09
2023-03-17T05:43:56.622Z,101018.88
2023-03-17T05:46:23.141Z,101018.41
2023-03-17T05:48:49.668Z,101018.75
2023-03-17T05:51:16.350Z,101016.81
2023-03-17T05:53:42.876Z,101028.88
2023-03-17T05:56:09.373Z,101029.13
2023-03-17T05:58:35.957Z,101027.13
2023-03-17T06:01:02.510Z,101037.75
2023-03-17T06:03:28.991Z,101038.63
2023-03-17T06:05:55.467Z,101045.59
2023-03-17T06:08:21.934Z,101054.34
2023-03-17T06:10:48.416Z,101057.78
2023-03-17T06:13:14.903Z,101063.88
2023-03-17T06:15:41.617Z,101070.34
2023-03-17T06:18:08.103Z,101076.69
2023-03-17T06:20:34.878Z,101076.47
2023-03-17T06:23:04.946Z,101075.22
2023-03-17T06:25:33.050Z,101080.25
2023-03-17T06:27:59.838Z,101085.97
2023-03-17T06:30:26.329Z,101085.41
2023-03-17T06:32:52.844Z,101079.47
2023-03-17T06:35:19.453Z,101083.84
2023-03-17T06:37:46.078Z,101076.69
2023-03-17T06:40:13.228Z,101079.34
2023-03-17T06:42:39.720Z,101090.19
2023-03-17T06:45:06.797Z,101085.72
2023-03-17T06:47:33.253Z,101081.56
2023-03-17T06:49:59.742Z,101080.13
2023-03-17T06:52:26.209Z,101081.41
2023-03-17T06:54:52.655Z,101077.25
2023-03-17T06:57:19.126Z,101080.78
2023-03-17T06:59:45.621Z,101084.31
2023-03-17T07:02:12.159Z,101083.00
2023-03-17T07:04:38.708Z,101079.31
2023-03-17T07:07:05.902Z,101074.97
2023-03-17T07:09:33.694Z,101074.34
2023-03-17T07:12:01.489Z,101072.47
2023-03-17T07:14:27.976Z,101064.59
2023-03-17T07:16:54.473Z,101078.13
2023-03-17T07:19:21.044Z,101064.19
2023-03-17T07:21:47.529Z,101079.97
2023-03-17T07:24:14.031Z,101072.84
2023-03-17T07:26:40.510Z,101074.25
2023-03-17T07:29:07.214Z,101077.72
2023-03-17T07:31:33.830Z,101076.09
2023-03-17T07:34:00.356Z,101084.91
2023-03-17T07:36:26.877Z,101099.16
2023-03-17T07:38:53.354Z,101096.00
2023-03-17T07:41:19.816Z,101104.91
2023-03-17T07:43:46.288Z,101091.84
2023-03-17T07:46:12.899Z,101098.41
2023-03-17T07:48:40.894Z,101097.03
2023-03-17T07:51:12.756Z,101093.81
2023-03-17T07:53:39.273Z,101098.84
2023-03-17T07:56:05.948Z,101099.38
2023-03-17T07:58:32.791Z,101096.31
2023-03-17T08:00:59.240Z,101096.53
2023-03-17T08:03:25.756Z,101094.06
2023-03-17T08:05:53.395Z,101100.53
2023-03-17T08:08:19.882Z,101112.13
2023-03-17T08:10:46.373Z,101109.53
2023-03-17T08:13:12.899Z,101105.38
2023-03-17T08:15:39.441Z,101102.03
2023-03-17T08:18:05.945Z,101105.44
2023-03-17T08:20:33.027Z,101110.47
2023-03-17T08:23:00.178Z,101106.56
2023-03-17T08:25:27.077Z,101120.03
2023-03-17T08:27:53.566Z,101117.59
2023-03-17T08:30:20.313Z,101109.59
2023-03-17T08:32:47.477Z,101109.78
2023-03-17T08:35:16.022Z,101106.25
2023-03-17T08:37:45.601Z,101110.47
2023-03-17T08:40:14.463Z,101113.78
2023-03-17T08:42:40.974Z,101105.97
2023-03-17T08:45:07.792Z,101111.00
2023-03-17T08:47:34.259Z,101111.50
2023-03-17T08:50:02.128Z,101118.03
2023-03-17T08:52:28.608Z,101126.25
2023-03-17T08:54:55.062Z,101117.25
2023-03-17T08:57:21.557Z,101124.53
2023-03-17T08:59:48.670Z,101121.41
2023-03-17T09:02:15.362Z,101126.00
2023-03-17T09:04:41.989Z,101128.75
2023-03-17T09:07:09.727Z,101126.69
2023-03-17T09:09:36.793Z,101127.72
2023-03-17T09:12:06.389Z,101131.19
2023-03-17T09:14:42.854Z,101136.75
2023-03-17T09:17:10.877Z,101142.03
2023-03-17T09:19:37.343Z,101133.34
2023-03-17T09:22:03.799Z,101139.00
2023-03-17T09:24:30.287Z,101138.72
2023-03-17T09:26:56.767Z,101133.44
2023-03-17T09:29:23.194Z,101130.53
2023-03-17T09:31:49.647Z,101128.25
2023-03-17T09:34:16.162Z,101126.78
2023-03-17T09:36:42.625Z,101133.72
2023-03-17T09:39:09.149Z,101126.44
2023-03-17T09:41:45.435Z,101123.38
2023-03-17T09:44:17.960Z,101137.00
2023-03-17T09:47:08.102Z,101122.47
2023-03-17T09:49:53.492Z,101122.00
2023-03-17T09:52:27.858Z,101123.50
2023-03-17T09:54:55.845Z,101123.91
2023-03-17T09:57:26.174Z,101120.53
2023-03-17T10:00:00.155Z,101115.41
2023-03-17T10:02:32.184Z,101125.19
2023-03-17T10:05:07.376Z,101117.97
2023-03-17T10:08:06.345Z,101110.69
2023-03-17T10:10:54.419Z,101119.88
2023-03-17T10:13:45.976Z,101119.94
2023-03-17T10:16:34.585Z,101113.09
2023-03-17T10:19:19.395Z,101118.28
2023-03-17T10:21:53.901Z,101110.03
2023-03-17T10:24:21.639Z,101109.88
2023-03-17T10:26:53.038Z,101103.09
2023-03-17T10:29:21.766Z,101105.19
2023-03-17T10:31:48.967Z,101109.53
2023-03-17T10:34:30.461Z,101094.81
2023-03-17T10:37:07.625Z,101093.38
2023-03-17T10:39:46.394Z,101091.97
2023-03-17T10:42:22.098Z,101081.84
2023-03-17T10:44:59.292Z,101084.31
2023-03-17T10:47:35.208Z,101088.69
2023-03-17T10:50:20.651Z,101095.78
2023-03-17T10:52:51.716Z,101098.63
2023-03-17T10:55:25.960Z,101088.84
2023-03-17T10:57:59.457Z,101087.56
2023-03-17T11:00:29.227Z,101080.66
2023-03-17T11:02:58.212Z,101078.13
2023-03-17T11:05:27.399Z,101076.16
2023-03-17T11:08:15.239Z,101073.44
2023-03-17T11:10:41.725Z,101062.34
2023-03-17T11:13:08.556Z,101060.78
2023-03-17T11:15:37.099Z,101061.88
2023-03-17T11:18:25.240Z,101061.75
2023-03-17T11:21:29.274Z,101051.66
2023-03-17T11:24:14.042Z,101044.34
2023-03-17T11:26:51.500Z,101043.88
2023-03-17T11:29:26.768Z,101043.16
2023-03-17T11:32:01.485Z,101027.91
2023-03-17T11:34:38.996Z,101030.66
2023-03-17T11:37:26.383Z,101033.22
2023-03-17T11:40:13.826Z,101033.78
2023-03-17T11:43:08.499Z,101027.13
2023-03-17T11:45:46.793Z,101025.00
2023-03-17T11:48:19.109Z,101022.34
2023-03-17T11:50:51.583Z,101019.53
2023-03-17T11:53:55.310Z,101028.16
2023-03-17T11:56:26.226Z,101016.84
2023-03-17T11:58:58.489Z,101015.75
2023-03-17T12:01:33.127Z,101007.72
2023-03-17T12:04:26.265Z,101007.00
2023-03-17T12:07:00.546Z,100999.56
2023-03-17T12:10:03.548Z,101000.00
2023-03-17T12:12:42.449Z,100999.16
2023-03-17T12:15:22.298Z,100986.91
2023-03-17T12:17:55.113Z,100983.94
2023-03-17T12:20:32.823Z,100984.47
2023-03-17T12:23:28.683Z,100982.97
2023-03-17T12:26:33.384Z,100987.22
2023-03-17T12:29:14.037Z,100981.97
2023-03-17T12:31:55.810Z,100981.84
2023-03-17T12:34:37.174Z,100980.50
2023-03-17T12:37:03.965Z,100974.16
2023-03-17T12:39:36.186Z,100964.25
2023-03-17T12:42:40.486Z,100964.41
2023-03-17T12:45:44.351Z,100955.00
2023-03-17T12:48:45.178Z,100955.47
2023-03-17T12:51:45.496Z,100969.50
2023-03-17T12:54:18.601Z,100960.97
2023-03-17T12:56:47.895Z,100959.41
2023-03-17T12:59:21.108Z,100952.47
2023-03-17T13:02:05.465Z,100949.09
2023-03-17T13:04:35.279Z,100947.78
2023-03-17T13:07:22.082Z,100952.78
2023-03-17T13:09:54.371Z,100944.09
2023-03-17T13:12:39.252Z,100948.03
2023-03-17T13:15:33.751Z,100949.41
2023-03-17T13:18:12.534Z,100950.31
2023-03-17T13:20:51.122Z,100944.53
2023-03-17T13:23:19.923Z,100948.28
2023-03-17T13:25:52.706Z,100940.91
2023-03-17T13:28:39.644Z,100947.47
2023-03-17T13:31:11.173Z,100948.34
2023-03-17T13:33:45.002Z,100938.97
2023-03-17T13:36:41.792Z,100947.59
2023-03-17T13:39:19.540Z,100940.47
2023-03-17T13:42:17.608Z,100943.16
2023-03-17T13:45:09.495Z,100942.06
2023-03-17T13:47:39.256Z,100941.34
2023-03-17T13:50:17.136Z,100931.72
2023-03-17T13:52:54.588Z,100928.75
2023-03-17T13:55:23.877Z,100930.31
2023-03-17T13:58:07.724Z,100944.34
2023-03-17T14:00:40.900Z,100937.53
2023-03-17T14:03:20.138Z,100928.94
2023-03-17T14:05:49.384Z,100924.69
2023-03-17T14:08:22.273Z,100933.53
2023-03-17T14:10:56.984Z,100930.63
2023-03-17T14:13:31.929Z,100924.16
2023-03-17T14:15:58.364Z,100925.88
2023-03-17T14:18:35.030Z,100927.88
2023-03-17T14:21:06.146Z,100920.00
2023-03-17T14:23:34.613Z,100920.59
2023-03-17T14:26:02.724Z,100929.56
2023-03-17T14:28:34.507Z,100914.75
2023-03-17T14:31:00.907Z,100919.50
2023-03-17T14:33:39.803Z,100919.50
2023-03-17T14:36:09.228Z,100910.22
2023-03-17T14:38:45.384Z,100915.53
2023-03-17T14:41:21.973Z,100911.50
2023-03-17T14:43:50.580Z,100909.25
2023-03-17T14:46:23.008Z,100914.03
2023-03-17T14:48:59.668Z,100919.19
2023-03-17T14:51:33.558Z,100909.19
2023-03-17T14:54:02.018Z,100910.50
2023-03-17T14:56:40.998Z,100909.09
2023-03-17T14:59:29.306Z,100903.75
2023-03-17T15:01:59.222Z,100908.91
2023-03-17T15:04:28.699Z,100906.94
2023-03-17T15:06:57.899Z,100901.31
2023-03-17T15:09:33.285Z,100896.03
2023-03-17T15:12:26.441Z,100900.56
2023-03-17T15:15:24.950Z,100903.78
2023-03-17T15:17:59.205Z,100907.38
2023-03-17T15:20:25.890Z,100905.75
2023-03-17T15:23:00.176Z,100906.41
2023-03-17T15:25:48.300Z,100899.06
2023-03-17T15:28:17.144Z,100897.13
2023-03-17T15:30:49.212Z,100890.41
2023-03-17T15:33:22.986Z,100900.97
2023-03-17T15:35:50.331Z,100895.91
2023-03-17T15:38:16.718Z,100894.59
2023-03-17T15:40:43.320Z,100898.34
2023-03-17T15:43:17.898Z,100894.69
2023-03-17T15:45:44.951Z,100903.13
2023-03-17T15:48:23.509Z,100897.06
2023-03-17T15:50:51.357Z,100894.47
2023-03-17T15:53:18.390Z,100898.31
2023-03-17T15:55:45.433Z,100900.38
2023-03-17T15:58:11.890Z,100902.28
2023-03-17T16:00:38.816Z,100905.53
2023-03-17T16:03:18.576Z,100899.81
2023-03-17T16:05:45.071Z,100904.25
2023-03-17T16:08:15.472Z,100910.03
2023-03-17T16:10:41.994Z,100895.88
2023-03-17T16:13:08.495Z,100902.25
2023-03-17T16:15:38.634Z,100902.25
2023-03-17T16:18:07.776Z,100904.09
2023-03-17T16:20:42.967Z,100896.31
2023-03-17T16:23:15.967Z,100900.00
2023-03-17T16:25:42.958Z,100904.03
2023-03-17T16:28:16.628Z,100901.25
2023-03-17T16:30:44.067Z,100904.81
2023-03-17T16:33:25.507Z,100900.19
2023-03-17T16:35:53.151Z,100904.03
2023-03-17T16:38:22.794Z,100896.19
2023-03-17T16:40:54.726Z,100899.06
2023-03-17T16:43:33.146Z,100902.44
2023-03-17T16:46:01.637Z,100912.75
2023-03-17T16:48:28.805Z,100907.19
2023-03-17T16:50:56.514Z,100915.16
2023-03-17T16:53:23.792Z,100914.69
2023-03-17T16:55:51.629Z,100912.41
2023-03-17T16:58:39.799Z,100919.72
2023-03-17T17:01:14.580Z,100919.03
2023-03-17T17:03:42.683Z,100914.84
2023-03-17T17:06:11.519Z,100926.75
2023-03-17T17:08:38.163Z,100925.41
2023-03-17T17:11:04.769Z,100922.41
2023-03-17T17:13:31.216Z,100921.00
2023-03-17T17:15:57.762Z,100922.22
2023-03-17T17:18:24.305Z,100925.22
2023-03-17T17:20:52.241Z,100929.94
2023-03-17T17:23:21.448Z,100928.22
2023-03-17T17:25:48.739Z,100936.28
2023-03-17T17:28:20.525Z,100931.66
2023-03-17T17:30:46.978Z,100937.50
2023-03-17T17:33:15.011Z,100941.66
2023-03-17T17:35:42.294Z,100939.44
2023-03-17T17:38:26.359Z,100944.22
2023-03-17T17:40:54.448Z,100946.34
2023-03-17T17:43:21.017Z,100948.56
2023-03-17T17:45:48.309Z,100951.94
2023-03-17T17:48:20.257Z,100950.00
2023-03-17T17:50:46.756Z,100941.44
2023-03-17T17:53:13.255Z,100944.91
2023-03-17T17:55:42.488Z,100952.69
2023-03-17T17:58:12.506Z,100943.94
2023-03-17T18:00:39.019Z,100948.72
2023-03-17T18:03:05.448Z,100951.81
2023-03-17T18:05:31.889Z,100955.63
2023-03-17T18:07:59.183Z,100958.78
2023-03-17T18:10:27.298Z,100950.31
2023-03-17T18:12:53.847Z,100958.63
2023-03-17T18:15:21.136Z,100958.91
2023-03-17T18:17:47.987Z,100949.22
2023-03-17T18:20:16.756Z,100962.56
2023-03-17T18:22:44.048Z,100956.31
2023-03-17T18:25:12.637Z,100955.41
2023-03-17T18:27:39.939Z,100954.22
2023-03-17T18:30:08.966Z,100963.41
2023-03-17T18:32:36.762Z,100962.06
2023-03-17T18:35:08.125Z,100962.16
2023-03-17T18:37:36.591Z,100956.06
2023-03-17T18:40:19.111Z,100962.84
2023-03-17T18:42:46.665Z,100956.88
2023-03-17T18:45:14.009Z,100957.56
2023-03-17T18:47:40.601Z,100963.44
2023-03-17T18:50:08.530Z,100962.31
2023-03-17T18:52:36.763Z,100958.44
2023-03-17T18:55:04.280Z,100962.16
2023-03-17T18:57:30.816Z,100962.91
2023-03-17T18:59:57.273Z,100969.16
2023-03-17T19:02:23.784Z,100969.44
2023-03-17T19:04:50.674Z,100971.41
2023-03-17T19:07:17.747Z,100969.06
2023-03-17T19:09:44.872Z,100978.94
2023-03-17T19:12:11.349Z,100975.88
2023-03-17T19:14:37.918Z,100968.19
2023-03-17T19:17:05.392Z,100978.03
2023-03-17T19:19:32.082Z,100975.00
2023-03-17T19:21:58.739Z,100976.28
2023-03-17T19:24:25.705Z,100978.34
2023-03-17T19:26:52.304Z,100977.31
2023-03-17T19:29:18.760Z,100974.88
2023-03-17T19:31:47.354Z,100985.94
2023-03-17T19:34:14.946Z,100983.09
2023-03-17T19:36:43.380Z,100985.63
2023-03-17T19:39:10.718Z,100987.44
2023-03-17T19:41:37.250Z,100978.31
2023-03-17T19:44:04.943Z,100985.56
2023-03-17T19:46:31.445Z,100987.59
2023-03-17T19:48:58.102Z,100989.00
2023-03-17T19:51:26.085Z,100991.06
2023-03-17T19:53:53.275Z,100986.47
2023-03-17T19:56:19.971Z,100989.22
2023-03-17T19:58:47.075Z,100988.34
2023-03-17T20:01:13.880Z,100989.91
2023-03-17T20:03:40.565Z,100990.75
2023-03-17T20:06:07.293Z,100998.16
2023-03-17T20:08:34.118Z,101000.81
2023-03-17T20:11:00.649Z,101000.75
2023-03-17T20:13:27.142Z,101003.59
2023-03-17T20:15:54.014Z,101000.91
2023-03-17T20:18:20.569Z,101009.00
2023-03-17T20:20:55.989Z,101004.81
2023-03-17T20:23:22.990Z,101001.41
2023-03-17T20:25:50.712Z,101007.34
2023-03-17T20:28:17.908Z,101007.75
2023-03-17T20:30:45.819Z,101008.78
2023-03-17T20:33:12.861Z,101001.81
2023-03-17T20:35:41.073Z,101005.72
2023-03-17T20:38:08.130Z,101011.56
2023-03-17T20:40:34.794Z,101006.28
2023-03-17T20:43:01.297Z,101011.75
2023-03-17T20:45:28.120Z,101014.03
2023-03-17T20:47:54.860Z,101012.53
2023-03-17T20:50:21.834Z,101013.50
2023-03-17T20:52:49.277Z,101005.63
2023-03-17T20:55:16.895Z,101018.47
2023-03-17T20:57:44.170Z,101005.03
2023-03-17T21:00:17.146Z,101011.84
2023-03-17T21:02:45.115Z,101015.38
2023-03-17T21:05:23.358Z,101005.50
2023-03-17T21:07:50.763Z,101009.03
2023-03-17T21:10:17.964Z,101009.03
2023-03-17T21:12:45.229Z,101002.22
2023-03-17T21:15:12.239Z,101006.69
2023-03-17T21:17:38.866Z,101019.16
2023-03-17T21:20:10.839Z,101007.88
2023-03-17T21:22:37.716Z,101009.88
2023-03-17T21:25:05.057Z,101006.47
2023-03-17T21:27:31.576Z,101003.91
2023-03-17T21:29:58.051Z,101004.06
2023-03-17T21:32:24.542Z,100994.41
2023-03-17T21:34:51.001Z,100995.50
2023-03-17T21:37:17.491Z,100997.50
2023-03-17T21:39:44.393Z,100992.34
2023-03-17T21:42:10.890Z,100995.09
2023-03-17T21:44:37.528Z,100991.59
2023-03-17T21:47:04.029Z,100992.72
2023-03-17T21:49:30.483Z,100994.69
2023-03-17T21:51:57.290Z,100993.94
2023-03-17T21:54:24.039Z,100986.88
2023-03-17T21:56:50.513Z,100985.31
2023-03-17T21:59:17.262Z,100976.69
2023-03-17T22:01:44.046Z,100978.59
2023-03-17T22:04:11.045Z,100975.28
2023-03-17T22:06:37.473Z,100978.25
2023-03-17T22:09:04.668Z,100975.13
2023-03-17T22:11:31.546Z,100973.38
2023-03-17T22:13:58.472Z,100976.22
2023-03-17T22:16:25.576Z,100967.34
2023-03-17T22:18:52.063Z,100967.66
2023-03-17T22:21:18.547Z,100964.31
2023-03-17T22:23:45.017Z,100967.78
2023-03-17T22:26:15.360Z,100962.00
2023-03-17T22:28:42.864Z,100973.63
2023-03-17T22:31:21.876Z,100967.72
2023-03-17T22:33:50.112Z,100963.78
2023-03-17T22:36:16.836Z,100964.13
2023-03-17T22:38:43.861Z,100964.22
2023-03-17T22:41:14.400Z,100957.19
2023-03-17T22:43:40.830Z,100964.19
2023-03-17T22:46:07.647Z,100958.66
2023-03-17T22:48:34.953Z,100959.56
2023-03-17T22:51:10.051Z,100955.53
2023-03-17T22:53:37.911Z,100949.69
2023-03-17T22:56:05.451Z,100952.19
2023-03-17T22:58:32.178Z,100953.94
2023-03-17T23:00:59.281Z,100956.91
2023-03-17T23:03:27.260Z,100951.47
2023-03-17T23:05:57.914Z,100946.91
2023-03-17T23:08:26.024Z,100954.19
2023-03-17T23:10:52.533Z,100955.13
2023-03-17T23:13:19.987Z,100964.84
2023-03-17T23:15:46.868Z,100945.31
2023-03-17T23:18:13.424Z,100947.31
2023-03-17T23:20:40.274Z,100945.56
2023-03-17T23:23:07.589Z,100954.44
2023-03-17T23:25:34.964Z,100949.16
2023-03-17T23:28:01.481Z,100952.00
2023-03-17T23:30:27.975Z,100944.13
2023-03-17T23:32:54.667Z,100952.25
2023-03-17T23:35:21.879Z,100940.94
2023-03-17T23:37:48.636Z,100934.78
2023-03-17T23:40:15.353Z,100935.69
2023-03-17T23:42:41.837Z,100937.53
2023-03-17T23:45:08.563Z,100937.63
2023-03-17T23:47:35.057Z,100927.31
2023-03-17T23:50:01.549Z,100930.03
2023-03-17T23:52:28.081Z,100919.28
2023-03-17T23:54:54.575Z,100934.13
2023-03-17T23:57:21.102Z,100920.91
2023-03-17T23:59:47.595Z,100920.00
